Tielt, Belgium
Current Conditions -  °F | °C
As of 11:20 AM on Thursday 27 Nov 2014 (Local Time) from EBOS Reporting Station
Haze Haze  
Wind Chill: 43°   Ceiling: 400
Heat Index: 48°   Visibility: 2.1mi
Dew Point: 48°   Wind: 12mph
Humidity: 100%   Direction: 150°SSE
Pressure: 29.71"   Gusts: NA
Location:  51°N, 3.33°E
Report Text: EBOS 271020Z 15010KT 3500 BR BKN004 09/09 Q1006 BECMG BKN005
Loading
Personal Weather Stations






























Interactive Weather Map New forecast layout! Learn more

10-Day Weather Forecast

Advertisements
Track Severe Weather on mobile